sensor_id;sensor_type;location;lat;lon;timestamp;temperature;humidity
298;DHT22;133;49.626;9.680;2022-12-18T00:02:01;-8.60;84.90
298;DHT22;133;49.626;9.680;2022-12-18T00:04:27;-8.70;86.10
298;DHT22;133;49.626;9.680;2022-12-18T00:06:53;-8.60;86.40
298;DHT22;133;49.626;9.680;2022-12-18T00:09:19;-8.60;85.90
298;DHT22;133;49.626;9.680;2022-12-18T00:11:45;-8.50;86.00
298;DHT22;133;49.626;9.680;2022-12-18T00:14:12;-8.50;85.00
298;DHT22;133;49.626;9.680;2022-12-18T00:16:38;-8.50;85.00
298;DHT22;133;49.626;9.680;2022-12-18T00:19:08;-8.70;84.90
298;DHT22;133;49.626;9.680;2022-12-18T00:21:35;-8.60;85.60
298;DHT22;133;49.626;9.680;2022-12-18T00:24:00;-8.50;85.60
298;DHT22;133;49.626;9.680;2022-12-18T00:26:29;-8.40;85.30
298;DHT22;133;49.626;9.680;2022-12-18T00:28:57;-8.50;84.90
298;DHT22;133;49.626;9.680;2022-12-18T00:31:26;-8.80;85.50
298;DHT22;133;49.626;9.680;2022-12-18T00:33:54;-8.80;86.10
298;DHT22;133;49.626;9.680;2022-12-18T00:36:22;-8.90;85.50
298;DHT22;133;49.626;9.680;2022-12-18T00:38:48;-8.80;85.40
298;DHT22;133;49.626;9.680;2022-12-18T00:41:15;-8.90;85.50
298;DHT22;133;49.626;9.680;2022-12-18T00:44:06;-8.80;85.90
298;DHT22;133;49.626;9.680;2022-12-18T00:46:32;-8.80;85.40
298;DHT22;133;49.626;9.680;2022-12-18T00:48:58;-8.70;85.10
298;DHT22;133;49.626;9.680;2022-12-18T00:51:24;-8.80;84.00
298;DHT22;133;49.626;9.680;2022-12-18T00:53:50;-8.90;84.40
298;DHT22;133;49.626;9.680;2022-12-18T00:56:16;-8.90;84.50
298;DHT22;133;49.626;9.680;2022-12-18T00:58:41;-9.00;84.80
298;DHT22;133;49.626;9.680;2022-12-18T01:01:07;-9.10;84.90
298;DHT22;133;49.626;9.680;2022-12-18T01:03:36;-9.10;84.80
298;DHT22;133;49.626;9.680;2022-12-18T01:06:06;-9.20;84.80
298;DHT22;133;49.626;9.680;2022-12-18T01:08:32;-9.20;84.80
298;DHT22;133;49.626;9.680;2022-12-18T01:10:58;-9.20;85.00
298;DHT22;133;49.626;9.680;2022-12-18T01:13:24;-9.30;85.40
298;DHT22;133;49.626;9.680;2022-12-18T01:15:50;-9.20;85.70
298;DHT22;133;49.626;9.680;2022-12-18T01:18:16;-9.20;85.30
298;DHT22;133;49.626;9.680;2022-12-18T01:20:41;-9.30;85.30
298;DHT22;133;49.626;9.680;2022-12-18T01:23:07;-9.20;85.30
298;DHT22;133;49.626;9.680;2022-12-18T01:25:35;-9.20;84.90
298;DHT22;133;49.626;9.680;2022-12-18T01:28:00;-9.20;85.40
298;DHT22;133;49.626;9.680;2022-12-18T01:30:27;-9.20;85.60
298;DHT22;133;49.626;9.680;2022-12-18T01:32:52;-9.30;85.60
298;DHT22;133;49.626;9.680;2022-12-18T01:35:18;-9.30;85.60
298;DHT22;133;49.626;9.680;2022-12-18T01:37:46;-9.30;85.50
298;DHT22;133;49.626;9.680;2022-12-18T01:40:12;-9.30;86.00
298;DHT22;133;49.626;9.680;2022-12-18T01:42:37;-9.20;85.80
298;DHT22;133;49.626;9.680;2022-12-18T01:47:50;-9.00;85.00
298;DHT22;133;49.626;9.680;2022-12-18T01:50:39;-8.90;84.40
298;DHT22;133;49.626;9.680;2022-12-18T01:53:14;-9.00;83.90
298;DHT22;133;49.626;9.680;2022-12-18T01:55:52;-9.00;83.60
298;DHT22;133;49.626;9.680;2022-12-18T01:58:20;-9.20;83.30
298;DHT22;133;49.626;9.680;2022-12-18T02:00:48;-9.30;83.90
298;DHT22;133;49.626;9.680;2022-12-18T02:03:13;-9.30;84.20
298;DHT22;133;49.626;9.680;2022-12-18T02:08:10;-9.50;85.00
298;DHT22;133;49.626;9.680;2022-12-18T02:13:51;-9.50;85.10
298;DHT22;133;49.626;9.680;2022-12-18T02:22:33;-9.70;85.80
298;DHT22;133;49.626;9.680;2022-12-18T02:27:51;-9.40;85.70
298;DHT22;133;49.626;9.680;2022-12-18T02:30:18;-9.30;85.60
298;DHT22;133;49.626;9.680;2022-12-18T02:32:49;-9.40;85.10
298;DHT22;133;49.626;9.680;2022-12-18T02:35:20;-9.50;85.40
298;DHT22;133;49.626;9.680;2022-12-18T02:37:47;-9.40;86.00
298;DHT22;133;49.626;9.680;2022-12-18T02:40:14;-9.30;85.00
298;DHT22;133;49.626;9.680;2022-12-18T02:42:41;-9.30;84.40
298;DHT22;133;49.626;9.680;2022-12-18T02:45:07;-9.50;83.90
298;DHT22;133;49.626;9.680;2022-12-18T02:47:37;-9.50;85.00
298;DHT22;133;49.626;9.680;2022-12-18T02:58:18;-9.60;84.80
298;DHT22;133;49.626;9.680;2022-12-18T03:03:42;-9.50;85.60
298;DHT22;133;49.626;9.680;2022-12-18T03:06:24;-9.40;85.60
298;DHT22;133;49.626;9.680;2022-12-18T03:08:56;-9.40;85.40
298;DHT22;133;49.626;9.680;2022-12-18T03:11:23;-9.40;85.10
298;DHT22;133;49.626;9.680;2022-12-18T03:14:11;-9.40;85.00
298;DHT22;133;49.626;9.680;2022-12-18T03:16:40;-9.40;84.30
298;DHT22;133;49.626;9.680;2022-12-18T03:19:21;-9.50;84.40
298;DHT22;133;49.626;9.680;2022-12-18T03:21:51;-9.50;84.90
298;DHT22;133;49.626;9.680;2022-12-18T03:24:19;-9.40;84.80
298;DHT22;133;49.626;9.680;2022-12-18T03:26:48;-9.40;84.20
298;DHT22;133;49.626;9.680;2022-12-18T03:29:25;-9.50;83.70
298;DHT22;133;49.626;9.680;2022-12-18T03:31:55;-9.60;84.80
298;DHT22;133;49.626;9.680;2022-12-18T03:34:32;-9.60;84.60
298;DHT22;133;49.626;9.680;2022-12-18T03:36:58;-9.60;84.70
298;DHT22;133;49.626;9.680;2022-12-18T03:39:24;-9.60;84.40
298;DHT22;133;49.626;9.680;2022-12-18T03:42:16;-9.70;84.20
298;DHT22;133;49.626;9.680;2022-12-18T03:45:09;-9.70;84.40
298;DHT22;133;49.626;9.680;2022-12-18T03:47:41;-9.90;84.40
298;DHT22;133;49.626;9.680;2022-12-18T03:50:14;-10.00;84.90
298;DHT22;133;49.626;9.680;2022-12-18T03:55:19;-9.80;86.00
298;DHT22;133;49.626;9.680;2022-12-18T03:57:50;-9.90;85.70
298;DHT22;133;49.626;9.680;2022-12-18T04:00:18;-9.70;85.80
298;DHT22;133;49.626;9.680;2022-12-18T04:02:54;-9.70;84.80
298;DHT22;133;49.626;9.680;2022-12-18T04:05:22;-9.80;84.00
298;DHT22;133;49.626;9.680;2022-12-18T04:07:49;-9.90;84.30
298;DHT22;133;49.626;9.680;2022-12-18T04:10:17;-9.90;84.40
298;DHT22;133;49.626;9.680;2022-12-18T04:12:43;-10.00;84.30
298;DHT22;133;49.626;9.680;2022-12-18T04:15:10;-10.00;84.90
298;DHT22;133;49.626;9.680;2022-12-18T04:17:46;-10.00;84.60
298;DHT22;133;49.626;9.680;2022-12-18T04:20:12;-10.00;84.70
298;DHT22;133;49.626;9.680;2022-12-18T04:22:40;-10.10;85.00
298;DHT22;133;49.626;9.680;2022-12-18T04:25:06;-10.10;85.30
298;DHT22;133;49.626;9.680;2022-12-18T04:27:31;-9.90;85.60
298;DHT22;133;49.626;9.680;2022-12-18T04:29:57;-9.90;85.30
298;DHT22;133;49.626;9.680;2022-12-18T04:32:23;-9.80;84.90
298;DHT22;133;49.626;9.680;2022-12-18T04:34:48;-9.70;84.70
298;DHT22;133;49.626;9.680;2022-12-18T04:37:14;-9.80;84.70
298;DHT22;133;49.626;9.680;2022-12-18T04:39:39;-9.70;84.80
298;DHT22;133;49.626;9.680;2022-12-18T04:42:05;-9.70;84.50
298;DHT22;133;49.626;9.680;2022-12-18T04:44:31;-9.70;84.70
298;DHT22;133;49.626;9.680;2022-12-18T04:46:56;-9.60;84.40
298;DHT22;133;49.626;9.680;2022-12-18T04:49:22;-9.60;84.10
298;DHT22;133;49.626;9.680;2022-12-18T04:51:47;-9.70;83.90
298;DHT22;133;49.626;9.680;2022-12-18T04:54:13;-9.70;83.70
298;DHT22;133;49.626;9.680;2022-12-18T04:56:39;-9.80;84.00
298;DHT22;133;49.626;9.680;2022-12-18T04:59:05;-9.90;84.50
298;DHT22;133;49.626;9.680;2022-12-18T05:01:33;-10.00;84.90
298;DHT22;133;49.626;9.680;2022-12-18T05:03:59;-9.90;85.40
298;DHT22;133;49.626;9.680;2022-12-18T05:06:24;-9.80;85.50
298;DHT22;133;49.626;9.680;2022-12-18T05:08:50;-9.70;84.90
298;DHT22;133;49.626;9.680;2022-12-18T05:11:16;-9.80;84.60
298;DHT22;133;49.626;9.680;2022-12-18T05:13:44;-9.80;84.20
298;DHT22;133;49.626;9.680;2022-12-18T05:16:13;-9.80;84.20
298;DHT22;133;49.626;9.680;2022-12-18T05:18:40;-9.90;83.90
298;DHT22;133;49.626;9.680;2022-12-18T05:21:06;-10.00;84.10
298;DHT22;133;49.626;9.680;2022-12-18T05:23:31;-9.90;84.30
298;DHT22;133;49.626;9.680;2022-12-18T05:25:59;-9.90;84.30
298;DHT22;133;49.626;9.680;2022-12-18T05:28:27;-9.90;84.60
298;DHT22;133;49.626;9.680;2022-12-18T05:30:55;-9.90;84.60
298;DHT22;133;49.626;9.680;2022-12-18T05:33:23;-9.90;84.40
298;DHT22;133;49.626;9.680;2022-12-18T05:35:53;-9.90;84.20
298;DHT22;133;49.626;9.680;2022-12-18T05:38:20;-9.90;84.70
298;DHT22;133;49.626;9.680;2022-12-18T05:40:46;-9.80;84.50
298;DHT22;133;49.626;9.680;2022-12-18T05:43:12;-9.80;84.20
298;DHT22;133;49.626;9.680;2022-12-18T05:45:38;-9.80;84.30
298;DHT22;133;49.626;9.680;2022-12-18T05:48:04;-9.80;83.90
298;DHT22;133;49.626;9.680;2022-12-18T05:50:30;-9.90;84.30
298;DHT22;133;49.626;9.680;2022-12-18T05:52:57;-9.90;84.70
298;DHT22;133;49.626;9.680;2022-12-18T05:55:22;-9.90;84.20
298;DHT22;133;49.626;9.680;2022-12-18T05:57:48;-10.00;83.80
298;DHT22;133;49.626;9.680;2022-12-18T06:00:16;-10.00;83.80
298;DHT22;133;49.626;9.680;2022-12-18T06:02:42;-10.00;84.90
298;DHT22;133;49.626;9.680;2022-12-18T06:05:11;-10.00;85.20
298;DHT22;133;49.626;9.680;2022-12-18T06:07:37;-10.00;85.20
298;DHT22;133;49.626;9.680;2022-12-18T06:10:02;-9.80;86.00
298;DHT22;133;49.626;9.680;2022-12-18T06:12:28;-9.70;86.60
298;DHT22;133;49.626;9.680;2022-12-18T06:14:54;-9.70;87.00
298;DHT22;133;49.626;9.680;2022-12-18T06:17:19;-9.60;87.30
298;DHT22;133;49.626;9.680;2022-12-18T06:19:45;-9.60;86.50
298;DHT22;133;49.626;9.680;2022-12-18T06:22:11;-9.50;86.50
298;DHT22;133;49.626;9.680;2022-12-18T06:24:39;-9.60;85.30
298;DHT22;133;49.626;9.680;2022-12-18T06:27:04;-9.90;84.10
298;DHT22;133;49.626;9.680;2022-12-18T06:29:30;-9.90;84.30
298;DHT22;133;49.626;9.680;2022-12-18T06:31:56;-9.90;84.70
298;DHT22;133;49.626;9.680;2022-12-18T06:34:21;-9.80;84.90
298;DHT22;133;49.626;9.680;2022-12-18T06:36:47;-9.70;84.80
298;DHT22;133;49.626;9.680;2022-12-18T06:39:12;-9.80;84.80
298;DHT22;133;49.626;9.680;2022-12-18T06:41:38;-9.70;84.70
298;DHT22;133;49.626;9.680;2022-12-18T06:44:04;-9.90;84.40
298;DHT22;133;49.626;9.680;2022-12-18T06:46:29;-9.90;84.70
298;DHT22;133;49.626;9.680;2022-12-18T06:48:55;-9.90;85.10
298;DHT22;133;49.626;9.680;2022-12-18T06:51:22;-10.00;85.30
298;DHT22;133;49.626;9.680;2022-12-18T06:53:48;-9.90;85.40
298;DHT22;133;49.626;9.680;2022-12-18T06:56:13;-10.00;85.30
298;DHT22;133;49.626;9.680;2022-12-18T06:58:39;-10.00;85.50
298;DHT22;133;49.626;9.680;2022-12-18T07:01:07;-10.00;85.20
298;DHT22;133;49.626;9.680;2022-12-18T07:03:33;-10.10;85.00
298;DHT22;133;49.626;9.680;2022-12-18T07:05:58;-10.20;85.60
298;DHT22;133;49.626;9.680;2022-12-18T07:08:24;-10.20;86.40
298;DHT22;133;49.626;9.680;2022-12-18T07:10:50;-10.20;86.40
298;DHT22;133;49.626;9.680;2022-12-18T07:13:16;-10.10;86.30
298;DHT22;133;49.626;9.680;2022-12-18T07:15:42;-10.20;86.20
298;DHT22;133;49.626;9.680;2022-12-18T07:18:08;-10.20;86.50
298;DHT22;133;49.626;9.680;2022-12-18T07:20:33;-10.10;86.40
298;DHT22;133;49.626;9.680;2022-12-18T07:23:02;-10.10;86.40
298;DHT22;133;49.626;9.680;2022-12-18T07:25:28;-10.00;86.50
298;DHT22;133;49.626;9.680;2022-12-18T07:27:54;-10.00;86.20
298;DHT22;133;49.626;9.680;2022-12-18T07:30:19;-10.10;85.80
298;DHT22;133;49.626;9.680;2022-12-18T07:32:45;-10.00;86.00
298;DHT22;133;49.626;9.680;2022-12-18T07:35:10;-10.00;86.00
298;DHT22;133;49.626;9.680;2022-12-18T07:37:36;-9.90;85.90
298;DHT22;133;49.626;9.680;2022-12-18T07:40:02;-9.90;85.70
298;DHT22;133;49.626;9.680;2022-12-18T07:42:27;-9.70;86.30
298;DHT22;133;49.626;9.680;2022-12-18T07:44:57;-9.80;85.90
298;DHT22;133;49.626;9.680;2022-12-18T07:47:23;-9.80;85.80
298;DHT22;133;49.626;9.680;2022-12-18T07:49:48;-9.80;85.70
298;DHT22;133;49.626;9.680;2022-12-18T07:52:14;-9.80;85.70
298;DHT22;133;49.626;9.680;2022-12-18T07:54:40;-9.80;85.70
298;DHT22;133;49.626;9.680;2022-12-18T07:57:06;-9.70;85.80
298;DHT22;133;49.626;9.680;2022-12-18T07:59:32;-9.70;85.80
298;DHT22;133;49.626;9.680;2022-12-18T08:01:58;-9.70;85.40
298;DHT22;133;49.626;9.680;2022-12-18T08:04:24;-9.60;86.30
298;DHT22;133;49.626;9.680;2022-12-18T08:06:50;-9.40;87.00
298;DHT22;133;49.626;9.680;2022-12-18T08:09:15;-9.20;87.90
298;DHT22;133;49.626;9.680;2022-12-18T08:11:41;-8.90;89.20
298;DHT22;133;49.626;9.680;2022-12-18T08:14:07;-8.70;90.50
298;DHT22;133;49.626;9.680;2022-12-18T08:16:32;-8.50;91.30
298;DHT22;133;49.626;9.680;2022-12-18T08:18:58;-8.20;91.80
298;DHT22;133;49.626;9.680;2022-12-18T08:21:27;-7.90;91.80
298;DHT22;133;49.626;9.680;2022-12-18T08:23:55;-7.70;92.00
298;DHT22;133;49.626;9.680;2022-12-18T08:26:21;-7.50;92.00
298;DHT22;133;49.626;9.680;2022-12-18T08:28:48;-7.30;91.90
298;DHT22;133;49.626;9.680;2022-12-18T08:31:13;-7.00;91.60
298;DHT22;133;49.626;9.680;2022-12-18T08:33:40;-6.90;91.20
298;DHT22;133;49.626;9.680;2022-12-18T08:36:06;-6.70;90.60
298;DHT22;133;49.626;9.680;2022-12-18T08:38:32;-6.50;90.10
298;DHT22;133;49.626;9.680;2022-12-18T08:41:05;-6.40;89.40
298;DHT22;133;49.626;9.680;2022-12-18T08:43:31;-6.30;88.40
298;DHT22;133;49.626;9.680;2022-12-18T08:46:20;-6.20;88.40
298;DHT22;133;49.626;9.680;2022-12-18T08:48:46;-6.10;88.00
298;DHT22;133;49.626;9.680;2022-12-18T08:51:12;-6.00;87.20
298;DHT22;133;49.626;9.680;2022-12-18T08:53:38;-5.90;87.20
298;DHT22;133;49.626;9.680;2022-12-18T08:56:04;-5.90;87.30
298;DHT22;133;49.626;9.680;2022-12-18T08:58:33;-5.70;87.50
298;DHT22;133;49.626;9.680;2022-12-18T09:01:07;-5.60;87.00
298;DHT22;133;49.626;9.680;2022-12-18T09:03:34;-5.50;86.70
298;DHT22;133;49.626;9.680;2022-12-18T09:06:00;-5.50;86.90
298;DHT22;133;49.626;9.680;2022-12-18T09:08:26;-5.40;86.60
298;DHT22;133;49.626;9.680;2022-12-18T09:10:52;-5.30;86.50
298;DHT22;133;49.626;9.680;2022-12-18T09:13:18;-5.20;86.50
298;DHT22;133;49.626;9.680;2022-12-18T09:15:47;-5.10;86.60
298;DHT22;133;49.626;9.680;2022-12-18T09:18:14;-4.90;86.80
298;DHT22;133;49.626;9.680;2022-12-18T09:20:44;-4.80;86.80
298;DHT22;133;49.626;9.680;2022-12-18T09:23:11;-4.70;86.70
298;DHT22;133;49.626;9.680;2022-12-18T09:25:37;-4.50;86.90
298;DHT22;133;49.626;9.680;2022-12-18T09:28:05;-4.40;86.80
298;DHT22;133;49.626;9.680;2022-12-18T09:30:31;-4.40;86.80
298;DHT22;133;49.626;9.680;2022-12-18T09:32:59;-4.20;87.00
298;DHT22;133;49.626;9.680;2022-12-18T09:35:27;-4.10;87.20
298;DHT22;133;49.626;9.680;2022-12-18T09:37:53;-4.10;87.10
298;DHT22;133;49.626;9.680;2022-12-18T09:40:22;-4.00;87.10
298;DHT22;133;49.626;9.680;2022-12-18T09:43:06;-3.90;86.90
298;DHT22;133;49.626;9.680;2022-12-18T09:45:42;-3.90;87.20
298;DHT22;133;49.626;9.680;2022-12-18T09:48:24;-3.70;87.20
298;DHT22;133;49.626;9.680;2022-12-18T09:50:51;-3.50;87.30
298;DHT22;133;49.626;9.680;2022-12-18T09:53:26;-3.40;86.70
298;DHT22;133;49.626;9.680;2022-12-18T09:55:54;-3.30;86.80
298;DHT22;133;49.626;9.680;2022-12-18T10:00:58;-3.00;86.40
298;DHT22;133;49.626;9.680;2022-12-18T10:03:24;-2.80;86.10
298;DHT22;133;49.626;9.680;2022-12-18T10:08:44;-2.60;85.40
298;DHT22;133;49.626;9.680;2022-12-18T10:23:01;-2.10;85.00
298;DHT22;133;49.626;9.680;2022-12-18T10:25:53;-1.90;84.50
298;DHT22;133;49.626;9.680;2022-12-18T10:28:21;-1.90;84.20
298;DHT22;133;49.626;9.680;2022-12-18T10:30:47;-1.80;84.40
298;DHT22;133;49.626;9.680;2022-12-18T10:33:22;-1.80;84.00
298;DHT22;133;49.626;9.680;2022-12-18T10:35:50;-1.70;84.20
298;DHT22;133;49.626;9.680;2022-12-18T10:41:01;-1.70;84.20
298;DHT22;133;49.626;9.680;2022-12-18T10:43:35;-1.60;84.30
298;DHT22;133;49.626;9.680;2022-12-18T10:51:39;-1.30;84.10
298;DHT22;133;49.626;9.680;2022-12-18T10:54:05;-1.20;84.00
298;DHT22;133;49.626;9.680;2022-12-18T10:56:34;-1.00;84.20
298;DHT22;133;49.626;9.680;2022-12-18T10:59:06;-0.90;84.00
298;DHT22;133;49.626;9.680;2022-12-18T11:01:52;-0.90;83.50
298;DHT22;133;49.626;9.680;2022-12-18T11:04:26;-1.00;83.90
298;DHT22;133;49.626;9.680;2022-12-18T11:07:12;-1.20;84.40
298;DHT22;133;49.626;9.680;2022-12-18T11:09:39;-1.00;84.40
298;DHT22;133;49.626;9.680;2022-12-18T11:12:25;-0.90;84.30
298;DHT22;133;49.626;9.680;2022-12-18T11:14:54;-0.90;83.70
298;DHT22;133;49.626;9.680;2022-12-18T11:20:19;-0.80;84.30
298;DHT22;133;49.626;9.680;2022-12-18T11:22:58;-0.70;84.30
298;DHT22;133;49.626;9.680;2022-12-18T11:25:25;-0.50;83.90
298;DHT22;133;49.626;9.680;2022-12-18T11:30:45;-0.60;83.30
298;DHT22;133;49.626;9.680;2022-12-18T11:33:19;-0.50;83.50
298;DHT22;133;49.626;9.680;2022-12-18T11:35:55;-0.50;83.40
298;DHT22;133;49.626;9.680;2022-12-18T11:38:40;-0.40;83.70
298;DHT22;133;49.626;9.680;2022-12-18T11:41:21;-0.20;83.60
298;DHT22;133;49.626;9.680;2022-12-18T11:44:11;-0.30;83.10
298;DHT22;133;49.626;9.680;2022-12-18T11:47:18;-0.20;83.10
298;DHT22;133;49.626;9.680;2022-12-18T11:49:35;-0.10;83.00
298;DHT22;133;49.626;9.680;2022-12-18T11:52:09;-0.20;82.80
298;DHT22;133;49.626;9.680;2022-12-18T11:54:39;-0.10;83.60
298;DHT22;133;49.626;9.680;2022-12-18T12:00:02;0.20;82.70
298;DHT22;133;49.626;9.680;2022-12-18T12:08:12;0.30;82.70
298;DHT22;133;49.626;9.680;2022-12-18T12:16:37;0.50;81.80
298;DHT22;133;49.626;9.680;2022-12-18T12:22:00;0.50;82.10
298;DHT22;133;49.626;9.680;2022-12-18T12:24:38;0.60;81.90
298;DHT22;133;49.626;9.680;2022-12-18T12:27:27;0.70;81.90
298;DHT22;133;49.626;9.680;2022-12-18T12:36:03;0.60;81.30
298;DHT22;133;49.626;9.680;2022-12-18T12:38:43;0.50;81.90
298;DHT22;133;49.626;9.680;2022-12-18T12:41:14;0.30;82.30
298;DHT22;133;49.626;9.680;2022-12-18T12:44:04;0.20;82.50
298;DHT22;133;49.626;9.680;2022-12-18T12:46:35;0.30;82.70
298;DHT22;133;49.626;9.680;2022-12-18T12:49:03;0.40;82.60
298;DHT22;133;49.626;9.680;2022-12-18T12:51:40;0.40;82.60
298;DHT22;133;49.626;9.680;2022-12-18T12:54:17;0.50;82.50
298;DHT22;133;49.626;9.680;2022-12-18T12:57:04;0.50;82.20
298;DHT22;133;49.626;9.680;2022-12-18T12:59:56;0.60;82.10
298;DHT22;133;49.626;9.680;2022-12-18T13:02:46;0.70;82.10
298;DHT22;133;49.626;9.680;2022-12-18T13:05:30;0.50;81.90
298;DHT22;133;49.626;9.680;2022-12-18T13:08:07;0.50;82.10
298;DHT22;133;49.626;9.680;2022-12-18T13:10:36;0.60;82.10
298;DHT22;133;49.626;9.680;2022-12-18T13:13:03;0.60;82.10
298;DHT22;133;49.626;9.680;2022-12-18T13:16:03;0.60;82.10
298;DHT22;133;49.626;9.680;2022-12-18T13:18:29;0.60;82.30
298;DHT22;133;49.626;9.680;2022-12-18T13:25:49;0.50;82.20
298;DHT22;133;49.626;9.680;2022-12-18T13:28:17;0.40;82.40
298;DHT22;133;49.626;9.680;2022-12-18T13:30:53;0.40;82.60
298;DHT22;133;49.626;9.680;2022-12-18T13:41:01;0.40;83.00
298;DHT22;133;49.626;9.680;2022-12-18T13:43:46;0.40;83.00
298;DHT22;133;49.626;9.680;2022-12-18T13:49:20;0.30;82.60
298;DHT22;133;49.626;9.680;2022-12-18T13:51:49;0.30;82.50
298;DHT22;133;49.626;9.680;2022-12-18T13:54:39;0.20;82.70
298;DHT22;133;49.626;9.680;2022-12-18T13:57:24;0.00;82.80
298;DHT22;133;49.626;9.680;2022-12-18T13:59:51;-0.10;82.90
298;DHT22;133;49.626;9.680;2022-12-18T14:02:21;-0.10;82.60
298;DHT22;133;49.626;9.680;2022-12-18T14:04:49;-0.20;83.00
298;DHT22;133;49.626;9.680;2022-12-18T14:09:51;-0.10;83.00
298;DHT22;133;49.626;9.680;2022-12-18T14:12:31;-0.10;83.00
298;DHT22;133;49.626;9.680;2022-12-18T14:20:18;-0.20;82.90
298;DHT22;133;49.626;9.680;2022-12-18T14:22:45;-0.20;82.80
298;DHT22;133;49.626;9.680;2022-12-18T14:25:24;-0.20;83.00
298;DHT22;133;49.626;9.680;2022-12-18T14:27:52;-0.30;82.90
298;DHT22;133;49.626;9.680;2022-12-18T14:30:26;-0.30;83.30
298;DHT22;133;49.626;9.680;2022-12-18T14:33:11;-0.40;83.10
298;DHT22;133;49.626;9.680;2022-12-18T14:35:40;-0.50;83.60
298;DHT22;133;49.626;9.680;2022-12-18T14:41:04;-0.70;83.80
298;DHT22;133;49.626;9.680;2022-12-18T14:43:33;-0.80;84.10
298;DHT22;133;49.626;9.680;2022-12-18T14:46:00;-0.80;84.30
298;DHT22;133;49.626;9.680;2022-12-18T14:48:46;-0.80;84.20
298;DHT22;133;49.626;9.680;2022-12-18T14:53:46;-0.80;84.20
298;DHT22;133;49.626;9.680;2022-12-18T14:56:36;-0.80;84.20
298;DHT22;133;49.626;9.680;2022-12-18T14:59:20;-0.90;84.40
298;DHT22;133;49.626;9.680;2022-12-18T15:04:42;-1.00;84.90
298;DHT22;133;49.626;9.680;2022-12-18T15:07:38;-1.20;85.30
298;DHT22;133;49.626;9.680;2022-12-18T15:10:17;-1.20;85.50
298;DHT22;133;49.626;9.680;2022-12-18T15:20:53;-1.30;86.20
298;DHT22;133;49.626;9.680;2022-12-18T15:26:05;-1.40;86.40
298;DHT22;133;49.626;9.680;2022-12-18T15:33:47;-1.40;86.70
298;DHT22;133;49.626;9.680;2022-12-18T15:36:26;-1.40;86.80
298;DHT22;133;49.626;9.680;2022-12-18T15:38:53;-1.40;86.70
298;DHT22;133;49.626;9.680;2022-12-18T15:41:21;-1.40;86.50
298;DHT22;133;49.626;9.680;2022-12-18T15:43:48;-1.50;86.70
298;DHT22;133;49.626;9.680;2022-12-18T15:46:19;-1.50;86.70
298;DHT22;133;49.626;9.680;2022-12-18T15:48:53;-1.50;86.50
298;DHT22;133;49.626;9.680;2022-12-18T15:53:59;-1.60;86.50
298;DHT22;133;49.626;9.680;2022-12-18T15:56:25;-1.70;86.70
298;DHT22;133;49.626;9.680;2022-12-18T15:59:20;-1.80;86.90
298;DHT22;133;49.626;9.680;2022-12-18T16:01:48;-1.90;87.00
298;DHT22;133;49.626;9.680;2022-12-18T16:04:16;-1.90;87.20
298;DHT22;133;49.626;9.680;2022-12-18T16:06:42;-1.90;87.40
298;DHT22;133;49.626;9.680;2022-12-18T16:09:08;-1.90;87.20
298;DHT22;133;49.626;9.680;2022-12-18T16:11:35;-1.90;87.20
298;DHT22;133;49.626;9.680;2022-12-18T16:14:16;-2.00;87.50
298;DHT22;133;49.626;9.680;2022-12-18T16:16:42;-2.00;87.50
298;DHT22;133;49.626;9.680;2022-12-18T16:19:08;-2.00;87.40
298;DHT22;133;49.626;9.680;2022-12-18T16:21:33;-2.00;87.60
298;DHT22;133;49.626;9.680;2022-12-18T16:23:59;-2.00;87.50
298;DHT22;133;49.626;9.680;2022-12-18T16:26:24;-2.00;87.50
298;DHT22;133;49.626;9.680;2022-12-18T16:28:50;-2.00;87.60
298;DHT22;133;49.626;9.680;2022-12-18T16:31:15;-2.00;87.60
298;DHT22;133;49.626;9.680;2022-12-18T16:33:41;-2.00;87.70
298;DHT22;133;49.626;9.680;2022-12-18T16:36:07;-2.00;87.70
298;DHT22;133;49.626;9.680;2022-12-18T16:38:33;-2.00;87.50
298;DHT22;133;49.626;9.680;2022-12-18T16:40:58;-2.00;87.70
298;DHT22;133;49.626;9.680;2022-12-18T16:43:42;-2.00;87.50
298;DHT22;133;49.626;9.680;2022-12-18T16:46:08;-2.00;87.20
298;DHT22;133;49.626;9.680;2022-12-18T16:48:34;-1.90;87.00
298;DHT22;133;49.626;9.680;2022-12-18T16:51:01;-2.00;87.00
298;DHT22;133;49.626;9.680;2022-12-18T16:53:27;-2.00;87.10
298;DHT22;133;49.626;9.680;2022-12-18T16:55:56;-2.10;87.10
298;DHT22;133;49.626;9.680;2022-12-18T16:58:22;-2.10;87.30
298;DHT22;133;49.626;9.680;2022-12-18T17:00:47;-2.10;87.40
298;DHT22;133;49.626;9.680;2022-12-18T17:03:13;-2.20;87.50
298;DHT22;133;49.626;9.680;2022-12-18T17:05:39;-2.10;87.60
298;DHT22;133;49.626;9.680;2022-12-18T17:08:05;-2.20;87.60
298;DHT22;133;49.626;9.680;2022-12-18T17:10:31;-2.20;87.70
298;DHT22;133;49.626;9.680;2022-12-18T17:12:56;-2.20;87.80
298;DHT22;133;49.626;9.680;2022-12-18T17:15:22;-2.20;87.90
298;DHT22;133;49.626;9.680;2022-12-18T17:17:47;-2.10;87.80
298;DHT22;133;49.626;9.680;2022-12-18T17:20:13;-2.10;87.70
298;DHT22;133;49.626;9.680;2022-12-18T17:22:39;-2.10;87.60
298;DHT22;133;49.626;9.680;2022-12-18T17:25:04;-2.10;87.50
298;DHT22;133;49.626;9.680;2022-12-18T17:27:30;-2.10;87.50
298;DHT22;133;49.626;9.680;2022-12-18T17:29:56;-2.10;87.50
298;DHT22;133;49.626;9.680;2022-12-18T17:32:21;-2.10;87.60
298;DHT22;133;49.626;9.680;2022-12-18T17:34:47;-2.10;87.70
298;DHT22;133;49.626;9.680;2022-12-18T17:37:13;-2.10;87.70
298;DHT22;133;49.626;9.680;2022-12-18T17:39:38;-2.10;87.80
298;DHT22;133;49.626;9.680;2022-12-18T17:42:04;-2.10;87.80
298;DHT22;133;49.626;9.680;2022-12-18T17:44:30;-2.10;87.80
298;DHT22;133;49.626;9.680;2022-12-18T17:46:55;-2.10;87.80
298;DHT22;133;49.626;9.680;2022-12-18T17:49:21;-2.00;87.70
298;DHT22;133;49.626;9.680;2022-12-18T17:51:47;-2.00;87.40
298;DHT22;133;49.626;9.680;2022-12-18T17:54:13;-2.00;87.40
298;DHT22;133;49.626;9.680;2022-12-18T17:56:39;-2.00;87.30
298;DHT22;133;49.626;9.680;2022-12-18T17:59:05;-2.00;87.20
298;DHT22;133;49.626;9.680;2022-12-18T18:01:31;-2.00;87.20
298;DHT22;133;49.626;9.680;2022-12-18T18:03:57;-2.00;87.20
298;DHT22;133;49.626;9.680;2022-12-18T18:06:24;-2.10;87.20
298;DHT22;133;49.626;9.680;2022-12-18T18:08:51;-2.10;87.30
298;DHT22;133;49.626;9.680;2022-12-18T18:11:19;-2.10;87.40
298;DHT22;133;49.626;9.680;2022-12-18T18:14:14;-2.10;87.60
298;DHT22;133;49.626;9.680;2022-12-18T18:16:43;-2.10;87.50
298;DHT22;133;49.626;9.680;2022-12-18T18:19:11;-2.10;87.40
298;DHT22;133;49.626;9.680;2022-12-18T18:21:39;-2.10;87.50
298;DHT22;133;49.626;9.680;2022-12-18T18:24:05;-2.10;87.40
298;DHT22;133;49.626;9.680;2022-12-18T18:26:33;-2.10;87.40
298;DHT22;133;49.626;9.680;2022-12-18T18:28:59;-2.10;87.50
298;DHT22;133;49.626;9.680;2022-12-18T18:31:27;-2.20;87.60
298;DHT22;133;49.626;9.680;2022-12-18T18:33:53;-2.20;87.70
298;DHT22;133;49.626;9.680;2022-12-18T18:36:19;-2.20;88.00
298;DHT22;133;49.626;9.680;2022-12-18T18:38:45;-2.30;88.20
298;DHT22;133;49.626;9.680;2022-12-18T18:41:14;-2.30;88.20
298;DHT22;133;49.626;9.680;2022-12-18T18:43:40;-2.30;88.30
298;DHT22;133;49.626;9.680;2022-12-18T18:46:06;-2.30;88.20
298;DHT22;133;49.626;9.680;2022-12-18T18:48:33;-2.30;88.40
298;DHT22;133;49.626;9.680;2022-12-18T18:51:05;-2.30;88.30
298;DHT22;133;49.626;9.680;2022-12-18T18:53:36;-2.30;88.40
298;DHT22;133;49.626;9.680;2022-12-18T18:56:04;-2.30;88.40
298;DHT22;133;49.626;9.680;2022-12-18T18:58:30;-2.20;88.30
298;DHT22;133;49.626;9.680;2022-12-18T19:01:01;-2.20;88.20
298;DHT22;133;49.626;9.680;2022-12-18T19:03:28;-2.20;88.20
298;DHT22;133;49.626;9.680;2022-12-18T19:05:56;-2.10;88.00